createdAt,value
2022-11-01T00:00:08.403Z,22.10
2022-11-01T00:02:59.930Z,21.50
2022-11-01T00:05:48.286Z,21.88
2022-11-01T00:08:44.628Z,19.65
2022-11-01T00:11:43.637Z,22.02
2022-11-01T00:14:39.632Z,21.75
2022-11-01T00:17:30.590Z,21.05
2022-11-01T00:20:21.295Z,21.25
2022-11-01T00:23:14.180Z,20.00
2022-11-01T00:26:01.573Z,21.45
2022-11-01T00:28:52.664Z,20.90
2022-11-01T00:31:41.774Z,22.83
2022-11-01T00:34:29.631Z,23.02
2022-11-01T00:37:17.374Z,21.90
2022-11-01T00:40:05.428Z,22.50
2022-11-01T00:42:55.816Z,22.55
2022-11-01T00:46:13.760Z,21.15
2022-11-01T00:49:02.766Z,20.02
2022-11-01T00:51:52.298Z,19.23
2022-11-01T00:54:40.003Z,19.70
2022-11-01T00:57:27.603Z,20.88
2022-11-01T01:00:17.280Z,21.52
2022-11-01T01:03:05.710Z,21.58
2022-11-01T01:05:56.102Z,20.20
2022-11-01T01:08:43.943Z,20.83
2022-11-01T01:11:31.737Z,20.52
2022-11-01T01:14:19.510Z,20.75
2022-11-01T01:17:06.826Z,21.30
2022-11-01T01:19:57.525Z,23.50
2022-11-01T01:22:46.438Z,22.58
2022-11-01T01:25:34.628Z,20.90
2022-11-01T01:28:22.225Z,23.08
2022-11-01T01:31:10.810Z,21.92
2022-11-01T01:33:59.944Z,20.33
2022-11-01T01:36:48.777Z,22.05
2022-11-01T01:39:40.384Z,22.13
2022-11-01T01:42:34.406Z,21.05
2022-11-01T01:45:34.524Z,22.00
2022-11-01T01:48:26.078Z,21.85
2022-11-01T01:51:19.142Z,20.83
2022-11-01T01:54:07.177Z,21.38
2022-11-01T01:56:56.382Z,19.50
2022-11-01T01:59:43.847Z,20.23
2022-11-01T02:02:31.522Z,20.38
2022-11-01T02:05:30.744Z,19.80
2022-11-01T02:08:26.752Z,19.25
2022-11-01T02:11:17.194Z,21.15
2022-11-01T02:14:06.824Z,21.02
2022-11-01T02:17:07.093Z,23.15
2022-11-01T02:20:44.485Z,22.92
2022-11-01T02:24:12.008Z,22.13
2022-11-01T02:27:27.602Z,21.27
2022-11-01T02:30:19.038Z,22.67
2022-11-01T02:33:22.572Z,21.20
2022-11-01T02:36:22.217Z,21.67
2022-11-01T02:39:22.263Z,21.38
2022-11-01T02:42:16.275Z,23.17
2022-11-01T02:45:10.717Z,23.35
2022-11-01T02:48:00.195Z,22.33
2022-11-01T02:50:55.539Z,22.05
2022-11-01T02:53:42.921Z,22.80
2022-11-01T02:56:31.600Z,22.17
2022-11-01T02:59:25.836Z,23.30
2022-11-01T03:02:21.431Z,25.10
2022-11-01T03:05:16.313Z,24.08
2022-11-01T03:11:08.110Z,23.00
2022-11-01T03:14:02.366Z,22.80
2022-11-01T03:17:00.695Z,23.37
2022-11-01T03:19:53.648Z,21.33
2022-11-01T03:22:45.289Z,25.63
2022-11-01T03:25:40.279Z,23.05
2022-11-01T03:28:34.711Z,23.52
2022-11-01T03:31:27.145Z,24.40
2022-11-01T03:34:18.461Z,24.73
2022-11-01T03:37:12.496Z,26.30
2022-11-01T03:40:05.563Z,25.40
2022-11-01T03:43:01.569Z,25.40
2022-11-01T03:45:50.078Z,25.50
2022-11-01T03:48:42.806Z,27.88
2022-11-01T03:51:30.663Z,27.38
2022-11-01T03:54:17.949Z,26.05
2022-11-01T03:57:05.720Z,27.27
2022-11-01T03:59:58.061Z,26.90
2022-11-01T04:03:15.778Z,26.55
2022-11-01T04:06:06.893Z,25.60
2022-11-01T04:08:54.283Z,23.52
2022-11-01T04:11:43.766Z,24.40
2022-11-01T04:14:50.648Z,24.83
2022-11-01T04:17:58.870Z,23.92
2022-11-01T04:20:46.749Z,25.60
2022-11-01T04:23:38.690Z,25.42
2022-11-01T04:26:26.808Z,25.38
2022-11-01T04:29:15.343Z,25.02
2022-11-01T04:32:04.852Z,24.45
2022-11-01T04:34:54.079Z,27.20
2022-11-01T04:37:41.654Z,28.25
2022-11-01T04:40:32.302Z,27.08
2022-11-01T04:43:22.907Z,27.88
2022-11-01T04:46:10.746Z,25.50
2022-11-01T04:48:58.468Z,29.88
2022-11-01T04:51:47.648Z,28.25
2022-11-01T04:54:39.120Z,25.77
2022-11-01T04:57:26.651Z,25.63
2022-11-01T05:00:21.783Z,28.70
2022-11-01T05:03:13.181Z,26.75
2022-11-01T05:06:01.692Z,26.25
2022-11-01T05:08:59.620Z,25.63
2022-11-01T05:11:49.864Z,24.38
2022-11-01T05:14:41.103Z,23.70
2022-11-01T05:17:34.521Z,22.33
2022-11-01T05:20:22.212Z,23.60
2022-11-01T05:23:11.287Z,23.23
2022-11-01T05:26:00.357Z,22.55
2022-11-01T05:28:48.467Z,22.55
2022-11-01T05:31:36.321Z,21.80
2022-11-01T05:34:24.108Z,21.92
2022-11-01T05:37:12.522Z,22.55
2022-11-01T05:40:00.179Z,20.83
2022-11-01T05:42:49.429Z,20.10
2022-11-01T05:45:41.068Z,19.95
2022-11-01T05:48:28.712Z,19.73
2022-11-01T05:51:16.286Z,20.95
2022-11-01T05:54:04.341Z,21.73
2022-11-01T05:57:33.279Z,22.52
2022-11-01T06:00:32.251Z,21.48
2022-11-01T06:03:32.081Z,21.23
2022-11-01T06:13:51.110Z,22.92
2022-11-01T06:16:41.298Z,23.38
2022-11-01T06:19:28.874Z,22.83
2022-11-01T06:22:17.538Z,21.95
2022-11-01T06:25:22.356Z,23.15
2022-11-01T06:28:19.302Z,22.13
2022-11-01T06:31:15.829Z,22.05
2022-11-01T06:34:09.551Z,22.25
2022-11-01T06:36:56.968Z,24.48
2022-11-01T06:39:44.876Z,24.67
2022-11-01T06:42:32.527Z,23.65
2022-11-01T06:45:19.761Z,22.38
2022-11-01T06:48:08.069Z,21.92
2022-11-01T06:50:57.337Z,20.90
2022-11-01T06:53:44.953Z,23.38
2022-11-01T06:56:56.916Z,24.83
2022-11-01T06:59:44.249Z,22.05
2022-11-01T07:02:32.212Z,24.10
2022-11-01T07:05:20.415Z,24.95
2022-11-01T07:08:12.943Z,25.25
2022-11-01T07:11:02.639Z,23.25
2022-11-01T07:13:50.343Z,26.92
2022-11-01T07:16:40.834Z,24.58
2022-11-01T07:19:28.473Z,22.55
2022-11-01T07:22:16.373Z,22.15
2022-11-01T07:25:07.071Z,21.65
2022-11-01T07:28:02.277Z,23.30
2022-11-01T07:30:49.915Z,21.63
2022-11-01T07:33:37.920Z,22.58
2022-11-01T07:36:35.978Z,23.23
2022-11-01T07:39:23.907Z,24.50
2022-11-01T07:42:22.516Z,23.85
2022-11-01T07:45:41.726Z,22.65
2022-11-01T07:48:39.312Z,23.45
2022-11-01T07:51:28.103Z,23.63
2022-11-01T07:54:21.468Z,23.15
2022-11-01T07:57:09.524Z,24.02
2022-11-01T07:59:58.574Z,25.25
2022-11-01T08:02:46.061Z,23.75
2022-11-01T08:05:40.484Z,23.92
2022-11-01T08:11:15.907Z,18.08
2022-11-01T08:14:11.168Z,19.67
2022-11-01T08:17:03.797Z,18.92
2022-11-01T08:19:51.112Z,18.70
2022-11-01T08:22:41.081Z,19.05
2022-11-01T08:25:32.663Z,19.02
2022-11-01T08:28:22.819Z,18.52
2022-11-01T08:31:18.154Z,18.85
2022-11-01T08:34:16.894Z,18.52
2022-11-01T08:37:06.675Z,17.58
2022-11-01T08:40:13.120Z,17.70
2022-11-01T08:44:44.435Z,20.77
2022-11-01T08:48:13.594Z,22.05
2022-11-01T08:51:08.357Z,21.40
2022-11-01T08:54:11.054Z,19.02
2022-11-01T08:56:58.755Z,18.73
2022-11-01T08:59:46.333Z,18.55
2022-11-01T09:02:34.957Z,18.33
2022-11-01T09:05:35.194Z,16.92
2022-11-01T09:08:49.819Z,17.25
2022-11-01T09:11:56.399Z,18.67
2022-11-01T09:14:58.162Z,16.85
2022-11-01T09:17:46.039Z,14.77
2022-11-01T09:20:33.940Z,14.65
2022-11-01T09:23:33.329Z,13.55
2022-11-01T09:26:20.770Z,12.98
2022-11-01T09:30:01.183Z,12.80
2022-11-01T09:32:50.911Z,13.13
2022-11-01T09:35:38.931Z,12.95
2022-11-01T09:38:37.784Z,13.25
2022-11-01T09:41:39.047Z,12.50
2022-11-01T09:44:34.013Z,12.70
2022-11-01T09:47:24.295Z,12.15
2022-11-01T09:50:22.769Z,11.85
2022-11-01T09:53:30.501Z,11.65
2022-11-01T09:56:30.616Z,11.52
2022-11-01T09:59:39.526Z,10.63
2022-11-01T10:03:21.862Z,12.63
2022-11-01T10:06:18.130Z,9.88
2022-11-01T10:09:13.322Z,9.48
2022-11-01T10:12:14.847Z,10.10
2022-11-01T10:15:26.407Z,10.80
2022-11-01T10:18:28.986Z,9.40
2022-11-01T10:21:18.770Z,10.18
2022-11-01T10:24:09.206Z,10.43
2022-11-01T10:27:06.804Z,10.95
2022-11-01T10:30:03.000Z,10.20
2022-11-01T10:32:55.228Z,9.82
2022-11-01T10:35:46.733Z,9.45
2022-11-01T10:39:10.712Z,10.13
2022-11-01T10:41:53.128Z,10.70
2022-11-01T10:44:46.781Z,9.60
2022-11-01T10:47:34.471Z,9.50
2022-11-01T10:50:27.122Z,10.52
2022-11-01T10:56:13.326Z,10.25
2022-11-01T10:59:04.254Z,10.77
2022-11-01T11:01:55.063Z,9.13
2022-11-01T11:04:43.108Z,9.45
2022-11-01T11:07:34.397Z,8.75
2022-11-01T11:10:26.780Z,7.95
2022-11-01T11:13:20.860Z,6.53
2022-11-01T11:16:15.895Z,6.80
2022-11-01T11:19:19.597Z,5.60
2022-11-01T11:22:15.772Z,6.30
2022-11-01T11:25:04.614Z,5.15
2022-11-01T11:27:54.037Z,5.32
2022-11-01T11:30:41.825Z,4.63
2022-11-01T11:33:29.964Z,5.38
2022-11-01T11:36:19.658Z,5.32
2022-11-01T11:39:08.991Z,5.13
2022-11-01T11:42:21.175Z,5.57
2022-11-01T11:45:27.336Z,5.30
2022-11-01T11:48:26.751Z,4.97
2022-11-01T11:51:14.478Z,5.72
2022-11-01T11:54:21.974Z,5.25
2022-11-01T11:57:12.308Z,5.40
2022-11-01T12:00:05.737Z,5.38
2022-11-01T12:03:07.082Z,5.32
2022-11-01T12:05:59.949Z,3.80
2022-11-01T12:08:50.389Z,5.28
2022-11-01T12:11:47.815Z,4.65
2022-11-01T12:14:41.773Z,4.53
2022-11-01T12:17:36.751Z,5.07
2022-11-01T12:23:26.830Z,5.00
2022-11-01T12:26:17.774Z,5.32
2022-11-01T12:29:18.605Z,5.68
2022-11-01T12:32:15.775Z,6.57
2022-11-01T12:35:18.208Z,6.20
2022-11-01T12:38:37.189Z,6.93
2022-11-01T12:41:35.307Z,6.65
2022-11-01T12:44:35.893Z,5.88
2022-11-01T12:47:31.908Z,6.50
2022-11-01T12:50:23.780Z,6.57
2022-11-01T12:53:19.088Z,6.80
2022-11-01T12:56:08.288Z,7.05
2022-11-01T12:58:58.402Z,7.70
2022-11-01T13:02:00.956Z,7.03
2022-11-01T13:04:58.615Z,7.60
2022-11-01T13:08:00.099Z,8.02
2022-11-01T13:10:50.333Z,8.18
2022-11-01T13:13:46.726Z,8.00
2022-11-01T13:16:43.703Z,8.43
2022-11-01T13:19:43.413Z,7.18
2022-11-01T13:22:39.502Z,7.40
2022-11-01T13:25:38.415Z,7.72
2022-11-01T13:28:48.955Z,7.32
2022-11-01T13:31:51.435Z,7.72
2022-11-01T13:34:52.491Z,7.40
2022-11-01T13:37:47.283Z,7.43
2022-11-01T13:40:42.272Z,7.50
2022-11-01T13:43:38.855Z,7.00
2022-11-01T13:47:15.218Z,6.97
2022-11-01T13:50:33.604Z,6.32
2022-11-01T13:53:29.595Z,6.38
2022-11-01T13:56:25.309Z,6.80
2022-11-01T13:59:29.738Z,7.10
2022-11-01T14:02:56.402Z,6.60
2022-11-01T14:05:48.555Z,6.13
2022-11-01T14:08:39.883Z,6.45
2022-11-01T14:11:49.103Z,5.78
2022-11-01T14:14:53.634Z,7.00
2022-11-01T14:18:08.492Z,6.50
2022-11-01T14:20:59.547Z,6.63
2022-11-01T14:23:51.284Z,6.47
2022-11-01T14:26:49.583Z,5.90
2022-11-01T14:29:39.056Z,6.03
2022-11-01T14:32:31.407Z,6.35
2022-11-01T14:35:26.678Z,6.57
2022-11-01T14:41:08.394Z,6.05
2022-11-01T14:46:54.923Z,6.10
2022-11-01T14:49:45.563Z,6.40
2022-11-01T14:52:41.810Z,6.10
2022-11-01T14:55:36.492Z,6.47
2022-11-01T14:58:25.331Z,7.85
2022-11-01T15:01:17.745Z,6.38
2022-11-01T15:04:05.990Z,7.00
2022-11-01T15:06:54.061Z,7.65
2022-11-01T15:09:41.891Z,7.32
2022-11-01T15:12:35.837Z,8.00
2022-11-01T15:15:27.178Z,8.80
2022-11-01T15:18:18.638Z,8.98
2022-11-01T15:21:08.553Z,7.82
2022-11-01T15:23:58.031Z,8.95
2022-11-01T15:26:45.718Z,9.57
2022-11-01T15:29:37.246Z,9.48
2022-11-01T15:32:29.904Z,8.55
2022-11-01T15:35:25.558Z,9.43
2022-11-01T15:38:21.177Z,9.15
2022-11-01T15:41:28.038Z,9.25
2022-11-01T15:44:22.779Z,9.38
2022-11-01T15:47:19.738Z,9.43
2022-11-01T15:50:10.189Z,9.90
2022-11-01T15:53:04.129Z,9.55
2022-11-01T15:56:00.504Z,9.38
2022-11-01T15:58:53.884Z,10.25
2022-11-01T16:01:42.094Z,9.90
2022-11-01T16:04:40.957Z,10.18
2022-11-01T16:07:33.439Z,10.68
2022-11-01T16:10:25.145Z,10.43
2022-11-01T16:13:20.857Z,9.90
2022-11-01T16:16:11.136Z,11.25
2022-11-01T16:18:58.950Z,12.02
2022-11-01T16:21:50.802Z,10.95
2022-11-01T16:24:43.214Z,10.93
2022-11-01T16:27:31.156Z,10.30
2022-11-01T16:30:46.466Z,10.68
2022-11-01T16:33:46.061Z,11.57
2022-11-01T16:36:38.753Z,10.63
2022-11-01T16:39:31.289Z,10.38
2022-11-01T16:42:20.409Z,10.75
2022-11-01T16:45:14.047Z,10.13
2022-11-01T16:48:01.966Z,11.20
2022-11-01T16:50:49.976Z,11.50
2022-11-01T16:53:37.734Z,10.93
2022-11-01T16:56:37.727Z,11.88
2022-11-01T16:59:32.254Z,11.48
2022-11-01T17:02:23.223Z,11.07
2022-11-01T17:05:21.545Z,11.57
2022-11-01T17:08:14.357Z,10.02
2022-11-01T17:11:02.002Z,10.98
2022-11-01T17:13:50.982Z,10.25
2022-11-01T17:16:39.784Z,11.13
2022-11-01T17:19:33.148Z,10.25
2022-11-01T17:22:26.024Z,11.02
2022-11-01T17:25:21.833Z,10.98
2022-11-01T17:28:09.545Z,10.98
2022-11-01T17:30:58.803Z,11.05
2022-11-01T17:33:46.231Z,11.15
2022-11-01T17:36:36.419Z,11.35
2022-11-01T17:39:25.237Z,11.68
2022-11-01T17:42:13.018Z,11.35
2022-11-01T17:45:00.794Z,12.40
2022-11-01T17:47:54.724Z,12.52
2022-11-01T17:50:44.360Z,12.18
2022-11-01T17:53:32.241Z,12.32
2022-11-01T17:56:19.954Z,13.80
2022-11-01T17:59:08.821Z,13.82
2022-11-01T18:01:56.240Z,12.68
2022-11-01T18:04:46.910Z,12.48
2022-11-01T18:07:40.608Z,13.13
2022-11-01T18:10:40.450Z,11.77
2022-11-01T18:13:47.950Z,13.02
2022-11-01T18:16:45.161Z,12.23
2022-11-01T18:19:49.597Z,12.70
2022-11-01T18:22:49.116Z,13.65
2022-11-01T18:25:41.553Z,14.05
2022-11-01T18:28:32.477Z,13.15
2022-11-01T18:31:30.856Z,13.55
2022-11-01T18:34:32.093Z,14.57
2022-11-01T18:37:29.623Z,14.25
2022-11-01T18:40:24.792Z,13.23
2022-11-01T18:43:12.361Z,13.60
2022-11-01T18:49:13.787Z,13.73
2022-11-01T18:52:02.556Z,13.25
2022-11-01T18:54:56.569Z,15.25
2022-11-01T18:57:44.709Z,14.93
2022-11-01T19:00:32.541Z,16.10
2022-11-01T19:03:30.223Z,15.20
2022-11-01T19:06:22.293Z,14.65
2022-11-01T19:09:23.214Z,15.07
2022-11-01T19:12:17.454Z,15.52
2022-11-01T19:15:25.739Z,15.83
2022-11-01T19:18:22.965Z,14.63
2022-11-01T19:21:47.921Z,16.65
2022-11-01T19:24:40.737Z,14.97
2022-11-01T19:27:43.820Z,17.33
2022-11-01T19:30:38.433Z,17.50
2022-11-01T19:33:37.345Z,18.83
2022-11-01T19:39:42.214Z,17.40
2022-11-01T19:42:33.568Z,17.17
2022-11-01T19:45:34.656Z,18.33
2022-11-01T19:48:24.563Z,18.63
2022-11-01T19:51:18.115Z,17.40
2022-11-01T19:54:18.454Z,16.77
2022-11-01T19:57:19.221Z,16.83
2022-11-01T20:00:25.226Z,17.23
2022-11-01T20:03:24.920Z,17.10
2022-11-01T20:06:21.418Z,17.73
2022-11-01T20:09:17.933Z,16.42
2022-11-01T20:12:06.637Z,16.50
2022-11-01T20:14:54.778Z,17.38
2022-11-01T20:20:35.682Z,17.20
2022-11-01T20:23:27.366Z,18.50
2022-11-01T20:26:15.484Z,16.17
2022-11-01T20:29:03.317Z,17.25
2022-11-01T20:31:50.905Z,16.98
2022-11-01T20:34:43.076Z,16.65
2022-11-01T20:37:30.963Z,16.80
2022-11-01T20:40:18.996Z,15.70
2022-11-01T20:43:07.660Z,16.25
2022-11-01T20:45:55.058Z,16.17
2022-11-01T20:48:42.850Z,17.70
2022-11-01T20:51:32.201Z,18.52
2022-11-01T20:54:19.825Z,16.45
2022-11-01T20:57:28.508Z,16.88
2022-11-01T21:00:18.991Z,16.42
2022-11-01T21:03:15.387Z,16.08
2022-11-01T21:06:03.260Z,16.30
2022-11-01T21:08:56.292Z,17.20
2022-11-01T21:11:47.337Z,15.82
2022-11-01T21:14:38.191Z,16.70
2022-11-01T21:17:28.884Z,16.42
2022-11-01T21:20:24.874Z,16.27
2022-11-01T21:23:27.200Z,15.88
2022-11-01T21:26:20.391Z,15.95
2022-11-01T21:29:32.739Z,15.90
2022-11-01T21:32:44.117Z,14.75
2022-11-01T21:35:42.854Z,16.10
2022-11-01T21:38:41.220Z,14.55
2022-11-01T21:41:34.815Z,15.23
2022-11-01T21:44:31.002Z,15.25
2022-11-01T21:47:22.837Z,14.10
2022-11-01T21:50:13.370Z,14.75
2022-11-01T21:53:01.550Z,15.02
2022-11-01T21:55:50.412Z,15.82
2022-11-01T21:58:39.758Z,15.52
2022-11-01T22:01:27.311Z,16.95
2022-11-01T22:04:18.195Z,17.67
2022-11-01T22:07:08.712Z,16.45
2022-11-01T22:09:59.658Z,17.00
2022-11-01T22:12:47.506Z,16.27
2022-11-01T22:15:38.763Z,16.90
2022-11-01T22:18:26.503Z,15.90
2022-11-01T22:21:14.297Z,16.40
2022-11-01T22:24:03.280Z,16.77
2022-11-01T22:26:51.319Z,16.33
2022-11-01T22:29:39.587Z,16.77
2022-11-01T22:32:29.461Z,17.02
2022-11-01T22:35:16.838Z,17.05
2022-11-01T22:38:17.122Z,15.73
2022-11-01T22:41:15.478Z,15.77
2022-11-01T22:44:11.424Z,16.17
2022-11-01T22:47:02.101Z,16.67
2022-11-01T22:50:04.775Z,15.95
2022-11-01T22:52:52.463Z,16.95
2022-11-01T22:55:44.411Z,14.85
2022-11-01T22:58:36.424Z,15.93
2022-11-01T23:01:30.634Z,16.75
2022-11-01T23:04:24.245Z,16.70
2022-11-01T23:07:31.252Z,16.40
2022-11-01T23:10:31.986Z,15.98
2022-11-01T23:13:43.936Z,15.52
2022-11-01T23:16:39.552Z,15.73
2022-11-01T23:19:29.692Z,16.50
2022-11-01T23:22:21.502Z,15.88
2022-11-01T23:25:11.637Z,16.27
2022-11-01T23:28:05.551Z,16.38
2022-11-01T23:30:59.562Z,16.05
2022-11-01T23:33:49.387Z,15.65
2022-11-01T23:36:40.431Z,16.75
2022-11-01T23:39:35.864Z,17.23
2022-11-01T23:42:26.491Z,17.23
2022-11-01T23:45:29.420Z,15.65
2022-11-01T23:48:17.031Z,16.88
2022-11-01T23:51:05.935Z,15.02
2022-11-01T23:53:55.984Z,16.80
2022-11-01T23:56:52.615Z,16.27
2022-11-01T23:59:40.960Z,16.20
